Time;durP1;ratioP1;P1;durP2;ratioP2;P2;SDS_P1;SDS_P2;PMS_P1;PMS_P2;Temp;Humidity;BMP_temperature;BMP_pressure;BME280_temperature;BME280_humidity;BME280_pressure;Samples;Min_cycle;Max_cycle;Signal;HPM_P1;HPM_P2
2022/02/14 00:02:20;;;;;;;14.73;9.88;;;;;;;1.01;99.33;95485.59;5003783;28;20053;-75
2022/02/14 00:04:46;;;;;;;10.95;9.02;;;;;;;1.03;100.00;95504.97;5005355;28;20459;-75
2022/02/14 00:07:11;;;;;;;13.95;8.98;;;;;;;1.10;100.00;95505.41;4987298;28;20025;-75
2022/02/14 00:09:37;;;;;;;13.05;9.65;;;;;;;0.98;100.00;95491.72;5005225;28;20116;-76
2022/02/14 00:12:03;;;;;;;11.30;9.98;;;;;;;0.99;100.00;95482.34;5009632;28;20030;-75
2022/02/14 00:14:29;;;;;;;11.50;9.65;;;;;;;1.08;100.00;95499.59;5010646;28;20029;-74
2022/02/14 00:16:55;;;;;;;13.73;10.43;;;;;;;1.12;100.00;95493.38;4992237;28;20032;-75
2022/02/14 00:19:21;;;;;;;29.10;11.70;;;;;;;1.08;100.00;95498.78;5007876;28;20026;-75
2022/02/14 00:21:47;;;;;;;11.75;10.55;;;;;;;0.99;100.00;95502.75;5008721;28;20033;-74
2022/02/14 00:24:13;;;;;;;18.08;10.82;;;;;;;0.99;100.00;95501.00;5009094;28;20411;-74
2022/02/14 00:26:39;;;;;;;14.32;10.25;;;;;;;0.98;100.00;95489.19;5010301;28;20029;-74
2022/02/14 00:29:05;;;;;;;15.02;11.27;;;;;;;0.95;100.00;95498.75;5007214;28;20416;-75
2022/02/14 00:31:30;;;;;;;17.85;10.85;;;;;;;0.94;100.00;95482.63;5010360;28;20048;-74
2022/02/14 00:33:56;;;;;;;15.13;10.57;;;;;;;0.85;100.00;95495.97;5008221;28;20034;-75
2022/02/14 00:36:21;;;;;;;18.30;10.73;;;;;;;0.83;100.00;95482.53;5008272;28;20018;-74
2022/02/14 00:38:47;;;;;;;17.50;12.10;;;;;;;0.82;100.00;95501.28;5009410;28;20050;-74
2022/02/14 00:41:12;;;;;;;12.93;11.30;;;;;;;0.86;100.00;95496.81;5007024;28;20038;-74
2022/02/14 00:43:37;;;;;;;16.77;10.82;;;;;;;0.67;100.00;95497.16;5008625;28;20077;-74
2022/02/14 00:46:03;;;;;;;17.58;11.85;;;;;;;0.71;100.00;95501.13;5008619;28;20462;-74
2022/02/14 00:48:28;;;;;;;19.02;12.07;;;;;;;0.77;100.00;95497.41;5008811;28;20030;-76
2022/02/14 00:50:54;;;;;;;20.92;14.13;;;;;;;0.70;100.00;95494.44;5008803;28;20369;-77
2022/02/14 00:53:19;;;;;;;23.13;12.63;;;;;;;0.81;100.00;95491.16;5009813;28;20026;-76
2022/02/14 00:55:45;;;;;;;20.02;11.40;;;;;;;0.91;100.00;95490.47;5008014;28;20525;-75
2022/02/14 00:58:10;;;;;;;18.48;12.13;;;;;;;0.83;100.00;95492.72;5008691;28;20029;-75
2022/02/14 01:00:36;;;;;;;20.92;13.95;;;;;;;0.83;100.00;95492.72;5008415;28;20022;-76
2022/02/14 01:03:02;;;;;;;17.02;12.63;;;;;;;0.62;100.00;95494.06;5007978;28;20026;-75
2022/02/14 01:05:28;;;;;;;17.88;12.23;;;;;;;0.55;100.00;95484.41;5009901;28;20416;-76
2022/02/14 01:07:54;;;;;;;16.73;12.30;;;;;;;0.19;100.00;95487.50;5006503;28;20026;-76
2022/02/14 01:10:19;;;;;;;16.27;12.20;;;;;;;0.22;100.00;95477.97;4992131;28;20026;-75
2022/02/14 01:12:45;;;;;;;18.52;13.20;;;;;;;0.61;100.00;95478.91;5007319;28;20084;-76
2022/02/14 01:15:11;;;;;;;19.20;12.00;;;;;;;0.23;100.00;95491.47;4991276;28;20018;-76
2022/02/14 01:17:37;;;;;;;22.90;12.15;;;;;;;0.36;100.00;95477.88;5008222;28;20033;-76
2022/02/14 01:20:04;;;;;;;24.02;13.52;;;;;;;0.32;100.00;95475.66;5006234;28;20026;-76
2022/02/14 01:22:30;;;;;;;21.83;13.48;;;;;;;0.25;100.00;95482.03;5009043;28;20034;-76
2022/02/14 01:24:55;;;;;;;14.63;11.85;;;;;;;0.29;100.00;95479.19;5006425;28;20109;-76
2022/02/14 01:27:21;;;;;;;23.08;13.07;;;;;;;0.19;100.00;95473.06;5009190;28;20505;-76
2022/02/14 01:29:46;;;;;;;17.05;12.85;;;;;;;0.13;100.00;95463.22;5006493;28;20065;-76
2022/02/14 01:32:13;;;;;;;18.58;12.23;;;;;;;0.42;100.00;95467.31;5008790;28;20026;-76
2022/02/14 01:34:38;;;;;;;19.65;12.65;;;;;;;0.03;100.00;95464.72;4992444;28;20064;-76
2022/02/14 01:37:04;;;;;;;16.38;10.65;;;;;;;0.27;100.00;95454.72;5007436;28;20018;-76
2022/02/14 01:39:29;;;;;;;18.20;12.52;;;;;;;0.21;100.00;95462.75;5008486;28;20065;-76
2022/02/14 01:41:56;;;;;;;15.10;10.35;;;;;;;0.52;100.00;95457.34;4990632;28;20050;-76
2022/02/14 01:44:49;;;;;;;13.50;9.73;;;;;;;0.34;100.00;95449.16;5009464;28;20034;-77
2022/02/14 01:47:22;;;;;;;19.75;11.73;;;;;;;0.21;100.00;95443.22;5006531;28;20042;-76
2022/02/14 01:49:49;;;;;;;20.88;12.13;;;;;;;0.16;100.00;95444.41;5008521;28;20025;-76
2022/02/14 01:52:15;;;;;;;18.35;12.75;;;;;;;0.10;100.00;95450.69;5008804;28;20087;-76
2022/02/14 01:54:46;;;;;;;13.70;10.45;;;;;;;-0.04;100.00;95450.75;4991400;28;20512;-76
2022/02/14 01:57:13;;;;;;;17.27;11.48;;;;;;;-0.19;100.00;95449.94;5008469;28;20029;-76
2022/02/14 01:59:39;;;;;;;21.08;11.45;;;;;;;-0.39;100.00;95450.34;5007593;28;20034;-76
2022/02/14 02:02:06;;;;;;;17.00;11.38;;;;;;;-0.39;100.00;95437.63;5009856;28;20029;-76
2022/02/14 02:04:32;;;;;;;15.38;11.05;;;;;;;0.10;100.00;95434.63;4991961;28;20473;-76
2022/02/14 02:06:58;;;;;;;15.30;10.48;;;;;;;-0.09;100.00;95429.84;5007761;28;20113;-76
2022/02/14 02:09:25;;;;;;;22.23;9.93;;;;;;;-0.11;100.00;95431.66;4992521;28;20025;-76
2022/02/14 02:14:35;;;;;;;13.73;9.50;;;;;;;-0.09;100.00;95434.94;5009118;28;20032;-76
2022/02/14 02:17:00;;;;;;;13.48;9.65;;;;;;;-0.34;100.00;95439.88;4990295;28;20577;-75
2022/02/14 02:19:26;;;;;;;15.07;10.00;;;;;;;-0.50;100.00;95440.00;4992220;28;20509;-76
2022/02/14 02:21:51;;;;;;;16.20;9.57;;;;;;;-0.29;100.00;95435.34;5007689;28;20373;-76
2022/02/14 02:24:20;;;;;;;13.73;8.65;;;;;;;-0.22;100.00;95436.59;5007812;28;20033;-75
2022/02/14 02:26:46;;;;;;;16.75;9.95;;;;;;;-0.59;100.00;95438.84;5008131;28;20192;-76
2022/02/14 02:29:14;;;;;;;14.82;10.25;;;;;;;-0.68;100.00;95424.13;5006747;28;20117;-76
2022/02/14 02:31:41;;;;;;;16.10;10.70;;;;;;;-0.46;100.00;95426.19;4992149;28;20038;-76
2022/02/14 02:34:06;;;;;;;17.48;11.70;;;;;;;-0.72;100.00;95417.59;5007086;28;20030;-76
2022/02/14 02:36:32;;;;;;;19.33;10.63;;;;;;;-0.84;100.00;95405.63;5009521;28;20041;-76
2022/02/14 02:38:57;;;;;;;15.95;10.88;;;;;;;-0.84;100.00;95412.44;4990814;28;20029;-75
2022/02/14 02:41:23;;;;;;;18.30;11.43;;;;;;;-0.88;100.00;95409.25;5007805;28;20026;-77
2022/02/14 02:43:48;;;;;;;16.02;12.07;;;;;;;-1.06;100.00;95408.59;4994754;28;20036;-76
2022/02/14 02:46:14;;;;;;;21.40;13.02;;;;;;;-1.20;100.00;95411.13;5010309;28;20429;-76
2022/02/14 02:48:39;;;;;;;20.40;13.98;;;;;;;-1.13;100.00;95403.97;5011348;28;20040;-76
2022/02/14 02:51:05;;;;;;;16.45;12.13;;;;;;;-1.20;100.00;95400.97;5009645;28;20029;-76
2022/02/14 02:53:33;;;;;;;20.63;13.85;;;;;;;-1.01;100.00;95399.88;5029007;28;20029;-76
2022/02/14 02:56:00;;;;;;;15.43;11.23;;;;;;;-1.01;100.00;95413.41;5009359;28;20025;-76
2022/02/14 02:58:25;;;;;;;18.77;12.77;;;;;;;-1.14;100.00;95405.69;5011071;28;20029;-76
2022/02/14 03:00:51;;;;;;;21.08;13.13;;;;;;;-1.19;100.00;95424.66;5010118;28;20099;-77
2022/02/14 03:03:16;;;;;;;16.75;12.80;;;;;;;-1.05;100.00;95411.94;5028144;28;20022;-76
2022/02/14 03:05:42;;;;;;;18.23;11.85;;;;;;;-1.08;100.00;95417.22;5010691;28;20060;-76
2022/02/14 03:08:08;;;;;;;19.27;12.95;;;;;;;-1.20;100.00;95410.31;5009844;28;20081;-76
2022/02/14 03:10:33;;;;;;;17.80;13.07;;;;;;;-1.13;100.00;95399.72;5010637;28;20512;-76
2022/02/14 03:12:59;;;;;;;20.13;13.13;;;;;;;-1.09;100.00;95407.94;5009442;28;20041;-76
2022/02/14 03:15:24;;;;;;;20.67;13.57;;;;;;;-1.14;100.00;95400.59;4994376;28;20026;-76
2022/02/14 03:17:50;;;;;;;22.75;14.32;;;;;;;-1.36;100.00;95391.78;5009228;28;20030;-76
2022/02/14 03:20:15;;;;;;;19.27;12.63;;;;;;;-1.21;100.00;95401.88;4994121;28;20032;-76
2022/02/14 03:22:41;;;;;;;17.80;12.60;;;;;;;-1.22;100.00;95395.13;4993581;28;20037;-76
2022/02/14 03:25:06;;;;;;;16.13;12.45;;;;;;;-1.03;100.00;95404.25;4993432;28;20029;-76
2022/02/14 03:27:32;;;;;;;17.25;12.90;;;;;;;-1.15;100.00;95404.03;4993667;28;20033;-76
2022/02/14 03:29:58;;;;;;;21.73;14.73;;;;;;;-1.07;100.00;95399.34;5009213;28;20522;-76
2022/02/14 03:32:24;;;;;;;24.85;15.65;;;;;;;-1.08;100.00;95390.09;5010414;28;20037;-76
2022/02/14 03:34:49;;;;;;;22.08;14.73;;;;;;;-0.91;100.00;95401.81;4992693;28;20121;-77
2022/02/14 03:37:15;;;;;;;19.15;12.75;;;;;;;-0.76;100.00;95395.78;4994086;28;20029;-77
2022/02/14 03:39:41;;;;;;;17.70;11.68;;;;;;;-0.72;100.00;95399.78;5027168;28;20034;-77
2022/02/14 03:42:06;;;;;;;18.30;12.38;;;;;;;-0.66;100.00;95399.44;5027487;28;20110;-76
2022/02/14 03:44:32;;;;;;;17.13;11.75;;;;;;;-0.58;100.00;95396.44;4993497;28;20029;-76
2022/02/14 03:46:58;;;;;;;18.98;11.60;;;;;;;-0.75;100.00;95389.00;4992451;28;20029;-76
2022/02/14 03:49:23;;;;;;;15.60;9.77;;;;;;;0.17;100.00;95395.94;5010145;28;20038;-77
2022/02/14 03:51:48;;;;;;;11.68;9.00;;;;;;;-0.11;100.00;95388.41;4992185;28;20033;-77
2022/02/14 03:54:14;;;;;;;14.32;9.75;;;;;;;-0.15;100.00;95392.88;4994086;28;20026;-76
2022/02/14 03:56:39;;;;;;;14.98;9.60;;;;;;;-0.48;100.00;95394.16;4992110;28;20036;-76
2022/02/14 03:59:05;;;;;;;12.75;8.32;;;;;;;0.30;100.00;95396.78;5028131;28;20052;-76
2022/02/14 04:01:30;;;;;;;12.68;9.52;;;;;;;-0.05;100.00;95381.22;5009176;28;20045;-76
2022/02/14 04:03:56;;;;;;;13.35;9.55;;;;;;;0.03;100.00;95396.00;5009847;28;20032;-76
2022/02/14 04:06:21;;;;;;;14.82;9.15;;;;;;;0.02;100.00;95396.91;5009867;28;20056;-76
2022/02/14 04:08:47;;;;;;;13.82;9.23;;;;;;;-0.04;100.00;95394.75;5026315;28;20037;-76
2022/02/14 04:11:12;;;;;;;16.23;10.55;;;;;;;-0.03;100.00;95386.19;5027862;28;20029;-75
2022/02/14 04:13:37;;;;;;;13.50;11.13;;;;;;;-0.08;100.00;95394.13;4992010;28;20404;-76
2022/02/14 04:16:03;;;;;;;17.60;13.25;;;;;;;-0.13;100.00;95393.59;5027584;28;20036;-76
2022/02/14 04:18:29;;;;;;;20.48;12.43;;;;;;;-0.22;100.00;95394.16;5008642;28;20060;-76
2022/02/14 04:20:55;;;;;;;19.02;13.13;;;;;;;-0.30;100.00;95387.91;4993734;28;20064;-76
2022/02/14 04:23:20;;;;;;;17.33;12.30;;;;;;;-0.50;100.00;95398.50;4993128;28;20038;-76
2022/02/14 04:25:46;;;;;;;16.65;12.35;;;;;;;-0.51;100.00;95394.34;4992581;28;20036;-75
2022/02/14 04:28:11;;;;;;;19.63;12.88;;;;;;;-0.48;100.00;95389.06;4993678;28;20060;-76
2022/02/14 04:30:36;;;;;;;18.13;12.70;;;;;;;-0.38;100.00;95382.47;5008318;28;20071;-76
2022/02/14 04:33:03;;;;;;;19.15;13.10;;;;;;;-0.49;100.00;95389.97;5010008;28;20485;-76
2022/02/14 04:35:29;;;;;;;17.02;12.30;;;;;;;-0.58;100.00;95388.81;4991959;28;20514;-76
2022/02/14 04:37:59;;;;;;;19.52;11.77;;;;;;;-0.36;100.00;95390.84;5009873;28;20120;-76
2022/02/14 04:40:25;;;;;;;16.95;12.38;;;;;;;-0.37;100.00;95384.13;5009955;28;20029;-77
2022/02/14 04:42:50;;;;;;;15.48;12.23;;;;;;;-0.34;100.00;95383.94;4992430;28;20054;-77
2022/02/14 04:45:16;;;;;;;20.00;12.68;;;;;;;-0.43;100.00;95389.59;4993304;28;20048;-76
2022/02/14 04:47:42;;;;;;;21.42;13.75;;;;;;;-0.26;100.00;95384.28;5008343;28;20160;-76
2022/02/14 04:50:08;;;;;;;24.92;13.75;;;;;;;-0.30;100.00;95385.38;4993387;28;20160;-77
2022/02/14 04:52:34;;;;;;;27.88;16.15;;;;;;;-0.29;100.00;95380.19;5008120;28;20519;-76
2022/02/14 04:54:59;;;;;;;20.02;13.70;;;;;;;-0.33;100.00;95376.22;5009252;28;20107;-77
2022/02/14 04:57:25;;;;;;;20.67;13.25;;;;;;;-0.25;100.00;95378.25;4993027;28;20699;-76
2022/02/14 04:59:50;;;;;;;22.33;12.52;;;;;;;-0.23;100.00;95379.81;5013440;28;20143;-77
2022/02/14 05:02:16;;;;;;;21.58;13.88;;;;;;;-0.29;100.00;95376.84;5012617;28;20407;-77
2022/02/14 05:04:41;;;;;;;18.35;11.18;;;;;;;-0.09;100.00;95384.03;4995752;28;20484;-76
2022/02/14 05:07:07;;;;;;;16.98;11.50;;;;;;;0.00;100.00;95391.91;5030695;28;20030;-77
2022/02/14 05:09:32;;;;;;;22.25;12.55;;;;;;;-0.02;100.00;95380.19;4995304;28;20031;-76
2022/02/14 05:11:58;;;;;;;19.27;13.05;;;;;;;0.00;100.00;95378.38;5012766;28;20021;-76
2022/02/14 05:14:23;;;;;;;15.45;11.90;;;;;;;0.08;100.00;95386.34;4995459;28;20112;-76
2022/02/14 05:16:48;;;;;;;18.92;12.60;;;;;;;0.06;100.00;95382.28;5012832;28;20134;-76
2022/02/14 05:19:14;;;;;;;16.70;10.13;;;;;;;0.18;100.00;95389.13;5011655;28;20026;-75
2022/02/14 05:21:39;;;;;;;15.13;10.70;;;;;;;0.21;100.00;95392.28;5030281;28;20028;-76
2022/02/14 05:24:05;;;;;;;16.63;11.32;;;;;;;0.21;100.00;95402.47;5030423;28;20025;-76
2022/02/14 05:26:30;;;;;;;12.38;8.50;;;;;;;0.09;100.00;95379.53;5011304;28;20052;-76
2022/02/14 05:28:56;;;;;;;11.25;9.43;;;;;;;0.12;100.00;95377.59;5012634;28;20392;-76
2022/02/14 05:31:22;;;;;;;17.08;9.57;;;;;;;0.24;100.00;95387.00;5028977;28;20029;-76
2022/02/14 05:33:49;;;;;;;14.77;9.85;;;;;;;0.42;100.00;95382.44;4996239;28;20450;-76
2022/02/14 05:36:15;;;;;;;12.55;9.80;;;;;;;0.45;100.00;95370.34;5028953;28;20524;-76
2022/02/14 05:38:41;;;;;;;12.77;9.70;;;;;;;0.47;100.00;95376.16;4996188;28;20606;-76
2022/02/14 05:41:06;;;;;;;13.30;10.40;;;;;;;0.32;100.00;95378.88;4995214;28;20025;-75
2022/02/14 05:43:31;;;;;;;12.82;9.85;;;;;;;0.39;100.00;95380.09;5011561;28;20121;-75
2022/02/14 05:45:57;;;;;;;15.18;10.25;;;;;;;0.35;100.00;95376.94;5029783;28;20055;-75
2022/02/14 05:48:26;;;;;;;17.35;10.73;;;;;;;0.43;100.00;95387.47;4994213;28;20041;-76
2022/02/14 05:50:52;;;;;;;14.68;10.30;;;;;;;0.44;100.00;95383.19;4996403;28;20057;-75
2022/02/14 05:53:18;;;;;;;15.25;9.70;;;;;;;0.41;100.00;95389.28;4994681;28;20025;-76
2022/02/14 05:55:43;;;;;;;11.00;8.88;;;;;;;0.49;100.00;95381.97;5012276;28;20022;-75
2022/02/14 05:58:09;;;;;;;13.80;9.95;;;;;;;0.54;100.00;95376.59;4994554;28;20414;-76
2022/02/14 06:00:34;;;;;;;13.75;9.93;;;;;;;0.50;100.00;95381.06;5011929;28;20021;-76
2022/02/14 06:03:00;;;;;;;11.88;10.18;;;;;;;0.60;100.00;95386.38;5011926;28;20407;-76
2022/02/14 06:05:25;;;;;;;12.55;9.88;;;;;;;0.72;100.00;95387.28;4994711;28;20021;-75
2022/02/14 06:07:51;;;;;;;20.02;13.07;;;;;;;0.57;100.00;95393.38;4995156;28;20568;-75
2022/02/14 06:10:16;;;;;;;14.68;12.15;;;;;;;0.66;100.00;95388.50;5010384;28;20033;-76
2022/02/14 06:12:42;;;;;;;17.73;13.73;;;;;;;0.74;100.00;95390.56;5011891;28;20033;-76
2022/02/14 06:15:08;;;;;;;17.67;12.63;;;;;;;0.88;100.00;95386.19;4994020;28;20071;-76
2022/02/14 06:17:34;;;;;;;15.38;10.20;;;;;;;1.08;100.00;95389.97;5011237;28;20086;-75
2022/02/14 06:20:00;;;;;;;11.07;9.27;;;;;;;1.19;100.00;95384.13;5028825;28;20025;-77
2022/02/14 06:22:25;;;;;;;13.95;9.95;;;;;;;1.39;100.00;95393.78;5011210;28;20021;-76
2022/02/14 06:24:51;;;;;;;9.73;8.57;;;;;;;1.51;100.00;95388.66;4995376;28;20063;-77
2022/02/14 06:27:16;;;;;;;13.73;8.57;;;;;;;2.32;100.00;95390.63;5010120;28;20033;-76
2022/02/14 06:29:41;;;;;;;35.78;9.77;;;;;;;2.26;100.00;95384.22;5029687;28;20045;-77
2022/02/14 06:32:07;;;;;;;12.25;9.32;;;;;;;2.21;100.00;95378.63;5010051;28;20049;-76
2022/02/14 06:34:32;;;;;;;15.73;10.13;;;;;;;2.82;98.20;95382.66;5011627;28;20510;-76
2022/02/14 06:36:58;;;;;;;12.43;10.63;;;;;;;2.78;97.59;95395.78;4994251;28;20025;-77
2022/02/14 06:39:23;;;;;;;12.52;10.45;;;;;;;2.64;96.88;95384.00;5011321;28;20025;-77
2022/02/14 06:41:49;;;;;;;12.15;9.50;;;;;;;3.18;94.88;95394.44;5011020;28;20041;-76
2022/02/14 06:44:14;;;;;;;11.93;8.80;;;;;;;3.02;93.54;95389.66;4993169;28;20030;-77
2022/02/14 06:46:40;;;;;;;10.90;8.82;;;;;;;2.22;96.95;95399.84;4994550;28;20025;-76
2022/02/14 06:49:06;;;;;;;15.18;11.05;;;;;;;2.55;97.59;95403.38;4991799;28;20486;-77
2022/02/14 06:51:35;;;;;;;13.40;9.70;;;;;;;2.39;96.97;95402.84;5010730;28;20115;-76
2022/02/14 06:54:00;;;;;;;15.30;10.43;;;;;;;2.57;98.51;95406.63;4992209;28;20080;-76
2022/02/14 06:56:26;;;;;;;14.38;10.02;;;;;;;2.81;96.55;95408.31;5027481;28;20029;-76
2022/02/14 06:58:51;;;;;;;17.70;9.73;;;;;;;2.94;95.12;95401.38;4992755;28;20017;-75
2022/02/14 07:01:17;;;;;;;14.63;10.13;;;;;;;3.31;94.21;95407.94;5008718;28;20107;-76
2022/02/14 07:03:43;;;;;;;12.25;10.30;;;;;;;3.17;91.98;95400.50;5009629;28;20026;-75
2022/02/14 07:06:08;;;;;;;13.63;9.75;;;;;;;3.38;92.20;95405.72;5025603;28;20032;-75
2022/02/14 07:08:34;;;;;;;13.88;10.63;;;;;;;3.73;89.89;95404.66;5010293;28;20079;-75
2022/02/14 07:11:00;;;;;;;11.32;9.80;;;;;;;4.34;87.66;95402.44;5008124;28;20025;-75
2022/02/14 07:13:26;;;;;;;17.75;11.63;;;;;;;4.15;87.09;95403.06;5027751;28;20067;-75
2022/02/14 07:15:52;;;;;;;13.43;9.88;;;;;;;3.92;87.68;95408.34;5007888;28;20026;-75
2022/02/14 07:18:17;;;;;;;15.13;10.52;;;;;;;4.16;87.48;95403.91;4999394;28;20573;-75
2022/02/14 07:20:43;;;;;;;13.18;9.75;;;;;;;4.58;85.30;95397.09;4992597;28;20506;-75
2022/02/14 07:23:10;;;;;;;14.38;10.98;;;;;;;4.30;87.61;95403.63;4984789;28;20034;-75
2022/02/14 07:25:36;;;;;;;13.82;12.43;;;;;;;4.11;88.68;95400.91;4970232;28;20038;-76
2022/02/14 07:28:01;;;;;;;15.30;11.70;;;;;;;3.73;92.02;95404.66;4984152;28;20018;-75
2022/02/14 07:30:26;;;;;;;15.35;11.25;;;;;;;3.54;91.83;95409.56;4985705;28;20040;-76
2022/02/14 07:32:52;;;;;;;15.45;11.88;;;;;;;3.49;93.70;95414.25;4983839;28;20029;-75
2022/02/14 07:35:18;;;;;;;16.88;11.65;;;;;;;2.61;94.46;95415.72;4986201;28;20022;-75
2022/02/14 07:37:44;;;;;;;10.18;8.63;;;;;;;2.70;96.06;95409.09;4984744;28;20105;-77
2022/02/14 07:40:14;;;;;;;11.02;8.77;;;;;;;2.97;96.04;95412.22;4986012;28;20030;-75
2022/02/14 07:42:40;;;;;;;11.90;10.35;;;;;;;3.30;96.14;95414.00;4981702;28;20047;-75
2022/02/14 07:45:06;;;;;;;16.02;9.88;;;;;;;2.90;94.80;95412.75;4981088;28;20042;-75
2022/02/14 07:47:32;;;;;;;11.98;9.45;;;;;;;3.09;95.34;95413.84;4982375;28;20070;-75
2022/02/14 07:49:57;;;;;;;15.98;11.18;;;;;;;2.63;97.75;95410.50;4980972;28;20058;-76
2022/02/14 07:52:23;;;;;;;14.57;10.85;;;;;;;2.82;100.00;95409.97;4982113;28;20034;-75
2022/02/14 07:54:51;;;;;;;20.50;10.68;;;;;;;2.80;100.00;95406.69;4980694;28;20033;-75
2022/02/14 07:57:17;;;;;;;16.23;11.77;;;;;;;2.48;100.00;95407.28;4966100;28;20030;-74
2022/02/14 07:59:46;;;;;;;14.30;10.23;;;;;;;2.61;100.00;95408.03;4982079;28;20037;-75
2022/02/14 08:02:12;;;;;;;15.25;10.02;;;;;;;2.45;100.00;95399.84;4991944;28;20029;-77
2022/02/14 08:04:37;;;;;;;21.10;13.82;;;;;;;2.35;100.00;95405.72;4985566;28;20026;-76
2022/02/14 08:07:04;;;;;;;22.02;13.93;;;;;;;2.11;100.00;95404.00;4999847;28;20116;-75
2022/02/14 08:09:32;;;;;;;18.85;14.23;;;;;;;2.34;100.00;95416.88;5001982;28;20100;-75
2022/02/14 08:11:58;;;;;;;20.48;12.65;;;;;;;2.53;100.00;95397.56;4999651;28;20030;-74
2022/02/14 08:14:23;;;;;;;19.50;14.40;;;;;;;2.73;100.00;95410.66;5002048;28;20033;-75
2022/02/14 08:16:49;;;;;;;20.08;14.35;;;;;;;2.27;100.00;95408.84;5001146;28;20466;-74
2022/02/14 08:19:14;;;;;;;19.83;15.13;;;;;;;2.55;100.00;95398.25;5002476;28;20026;-74
2022/02/14 08:21:39;;;;;;;22.80;14.95;;;;;;;2.66;100.00;95398.28;5003115;28;20038;-77
2022/02/14 08:24:05;;;;;;;22.13;14.50;;;;;;;2.72;100.00;95399.59;5000528;28;20065;-76
2022/02/14 08:26:33;;;;;;;21.88;16.52;;;;;;;2.79;100.00;95407.63;5001634;28;20030;-77
2022/02/14 08:28:58;;;;;;;25.27;16.58;;;;;;;2.60;100.00;95403.06;5000148;28;20030;-77
2022/02/14 08:31:24;;;;;;;21.38;15.80;;;;;;;2.65;100.00;95403.53;5002168;28;20054;-77
2022/02/14 08:33:49;;;;;;;24.83;15.57;;;;;;;2.53;100.00;95414.66;5003487;28;20056;-76
2022/02/14 08:36:15;;;;;;;17.63;14.05;;;;;;;2.73;100.00;95408.09;5006929;28;20030;-76
2022/02/14 08:38:41;;;;;;;20.52;15.30;;;;;;;2.79;100.00;95410.19;4988238;28;20089;-76
2022/02/14 08:41:06;;;;;;;23.75;15.77;;;;;;;2.82;100.00;95404.84;5003948;28;20018;-76
2022/02/14 08:43:31;;;;;;;19.63;13.68;;;;;;;2.83;100.00;95403.91;5024334;28;20530;-76
2022/02/14 08:45:59;;;;;;;17.58;12.38;;;;;;;2.97;100.00;95403.72;5006600;28;20410;-76
2022/02/14 08:48:24;;;;;;;15.98;11.45;;;;;;;3.17;100.00;95400.50;4992411;28;20064;-77
2022/02/14 08:50:50;;;;;;;14.32;11.00;;;;;;;3.40;100.00;95417.50;5005937;28;20056;-76
2022/02/14 08:53:21;;;;;;;14.90;12.50;;;;;;;3.29;100.00;95404.69;5008072;28;20029;-77
2022/02/14 08:55:47;;;;;;;14.30;11.02;;;;;;;3.45;100.00;95409.47;5007480;28;20033;-76
2022/02/14 08:58:13;;;;;;;12.77;9.43;;;;;;;3.69;100.00;95407.59;4991206;28;20079;-76
2022/02/14 09:00:38;;;;;;;12.35;10.20;;;;;;;3.58;100.00;95410.97;5026066;28;20023;-76
2022/02/14 09:03:04;;;;;;;12.70;8.88;;;;;;;3.63;100.00;95408.88;5007358;28;20030;-76
2022/02/14 09:05:29;;;;;;;8.88;7.45;;;;;;;3.56;100.00;95412.81;5026458;28;20034;-76
2022/02/14 09:07:55;;;;;;;10.60;8.75;;;;;;;3.52;100.00;95411.44;5005993;28;20030;-76
2022/02/14 09:10:21;;;;;;;12.88;10.18;;;;;;;3.40;100.00;95414.94;5007783;28;20030;-74
2022/02/14 09:12:47;;;;;;;12.95;9.27;;;;;;;3.29;100.00;95412.38;4988495;28;20036;-74
2022/02/14 09:15:13;;;;;;;11.18;8.40;;;;;;;3.17;100.00;95418.41;5025275;28;20487;-74
2022/02/14 09:17:40;;;;;;;16.88;10.82;;;;;;;3.16;100.00;95411.66;5024755;28;20503;-75
2022/02/14 09:20:06;;;;;;;9.88;8.88;;;;;;;3.27;100.00;95414.22;5006896;28;20061;-74
2022/02/14 09:22:32;;;;;;;12.10;10.25;;;;;;;3.37;100.00;95416.91;5007523;28;20403;-75
2022/02/14 09:24:57;;;;;;;15.15;10.15;;;;;;;3.18;100.00;95417.47;5004566;28;20042;-74
2022/02/14 09:27:23;;;;;;;12.50;11.00;;;;;;;3.21;100.00;95419.81;4991251;28;20029;-74
2022/02/14 09:29:49;;;;;;;16.77;11.48;;;;;;;3.07;100.00;95420.84;4988758;28;20505;-74
2022/02/14 09:32:16;;;;;;;14.27;11.38;;;;;;;3.04;100.00;95420.25;5025460;28;20025;-74
2022/02/14 09:34:42;;;;;;;15.40;10.88;;;;;;;3.18;100.00;95414.91;5006357;28;20073;-74
2022/02/14 09:37:08;;;;;;;15.57;11.15;;;;;;;3.15;100.00;95420.25;5006136;28;20057;-74
2022/02/14 09:39:33;;;;;;;13.63;11.15;;;;;;;3.25;100.00;95413.50;5025220;28;20484;-74
2022/02/14 09:42:04;;;;;;;12.35;11.10;;;;;;;3.40;100.00;95407.25;4985502;28;20042;-75
2022/02/14 09:44:30;;;;;;;15.52;10.80;;;;;;;3.44;100.00;95403.53;5003161;28;20128;-74
2022/02/14 09:46:55;;;;;;;16.05;11.38;;;;;;;3.78;100.00;95414.56;5002787;28;20038;-74
2022/02/14 09:49:21;;;;;;;11.27;10.15;;;;;;;3.80;100.00;95404.19;5005589;28;20119;-75
2022/02/14 09:51:49;;;;;;;15.98;10.23;;;;;;;4.14;100.00;95400.66;4985214;28;20041;-75
2022/02/14 09:54:15;;;;;;;11.13;9.80;;;;;;;4.29;100.00;95402.00;5003448;28;20068;-76
2022/02/14 09:56:41;;;;;;;14.43;9.77;;;;;;;4.66;100.00;95395.53;5004172;28;20062;-75
2022/02/14 09:59:06;;;;;;;9.95;8.98;;;;;;;5.23;100.00;95394.31;4985874;28;20057;-74
2022/02/14 10:01:32;;;;;;;11.10;9.25;;;;;;;5.38;100.00;95384.50;5003534;28;20029;-74
2022/02/14 10:04:00;;;;;;;11.45;9.25;;;;;;;6.18;100.00;95386.13;5002129;28;20461;-74
2022/02/14 10:06:33;;;;;;;10.13;9.02;;;;;;;6.54;95.06;95383.84;5004546;28;20030;-74
2022/02/14 10:09:12;;;;;;;10.52;8.32;;;;;;;6.73;93.60;95371.78;4985883;28;20076;-74
2022/02/14 10:11:42;;;;;;;8.93;7.93;;;;;;;6.99;89.70;95378.94;4998549;28;20056;-74
2022/02/14 10:14:14;;;;;;;;;;;;;;;5.74;98.04;95373.69;4987593;28;20026;-74
2022/02/14 10:16:39;;;;;;;10.93;9.25;;;;;;;6.32;95.28;95366.94;4996306;28;19953;-75
2022/02/14 10:19:14;;;;;;;11.68;9.65;;;;;;;6.25;97.84;95368.41;5003779;28;20067;-75
2022/02/14 10:21:45;;;;;;;9.10;8.13;;;;;;;6.57;96.92;95353.50;5000770;28;20025;-75
2022/02/14 10:24:13;;;;;;;9.27;8.38;;;;;;;8.46;82.93;95353.03;5003385;28;20026;-75
2022/02/14 10:26:45;;;;;;;10.48;7.95;;;;;;;7.41;90.84;95347.50;5001850;28;20117;-75
2022/02/14 10:29:27;;;;;;;8.95;8.05;;;;;;;6.93;93.58;95340.88;5002343;28;20037;-75
2022/02/14 10:31:59;;;;;;;8.57;7.70;;;;;;;6.48;96.51;95341.47;4986928;28;20034;-75
2022/02/14 10:34:48;;;;;;;10.70;7.97;;;;;;;6.61;95.76;95333.47;5001100;28;20022;-76
2022/02/14 10:37:16;;;;;;;10.13;7.85;;;;;;;7.80;91.70;95330.06;5002543;28;20029;-75
2022/02/14 10:39:43;;;;;;;9.82;8.88;;;;;;;8.48;87.42;95321.91;5002250;28;20532;-74
2022/02/14 10:42:23;;;;;;;9.27;7.53;;;;;;;8.31;87.52;95315.81;5001495;28;20081;-74
2022/02/14 10:45:08;;;;;;;10.77;8.43;;;;;;;7.18;90.16;95307.59;5002664;28;20121;-73
2022/02/14 10:47:35;;;;;;;10.57;9.68;;;;;;;6.69;94.26;95303.53;5000676;28;20040;-76
2022/02/14 10:50:11;;;;;;;9.30;8.40;;;;;;;7.12;93.65;95307.34;5003222;28;20049;-74
2022/02/14 10:52:52;;;;;;;9.60;8.60;;;;;;;7.25;90.97;95300.13;5001622;28;20080;-74
2022/02/14 10:55:34;;;;;;;10.20;8.90;;;;;;;7.89;88.61;95297.47;5000532;28;20527;-75
2022/02/14 10:58:02;;;;;;;8.35;7.57;;;;;;;8.07;84.96;95284.56;4985911;28;20038;-74
2022/02/14 11:00:32;;;;;;;9.85;8.88;;;;;;;7.18;86.98;95286.19;5000936;28;20030;-75
2022/02/14 11:02:58;;;;;;;;;;;;;;;7.28;90.62;95279.22;5004690;28;20025;-74
2022/02/14 11:05:26;;;;;;;11.27;8.90;;;;;;;6.16;93.52;95287.75;5002053;28;19928;-75
2022/02/14 11:07:52;;;;;;;9.88;8.95;;;;;;;6.79;93.53;95285.47;5002094;28;20022;-74
2022/02/14 11:10:19;;;;;;;10.70;9.55;;;;;;;6.53;94.14;95277.56;5002380;28;20480;-74
2022/02/14 11:12:48;;;;;;;10.63;9.32;;;;;;;6.86;93.68;95274.50;5000662;28;20022;-74
2022/02/14 11:15:15;;;;;;;9.90;8.93;;;;;;;7.48;92.04;95273.00;5002571;28;20423;-75
2022/02/14 11:17:45;;;;;;;10.30;9.40;;;;;;;7.16;94.59;95275.22;5000941;28;20030;-75
2022/02/14 11:20:11;;;;;;;11.77;9.13;;;;;;;6.51;94.60;95276.88;4981320;28;20113;-75
2022/02/14 11:22:44;;;;;;;10.40;9.40;;;;;;;6.60;93.34;95265.75;4983611;28;20518;-75